Herd, Oklahoma
Current Conditions -  °F | °C
As of 8:18 AM on Saturday 22 Nov 2014 (Local Time) from KBVO Reporting Station
Overcast Overcast  
Wind Chill: 56°   Ceiling: 600
Heat Index: 56°   Visibility: 7mi
Dew Point: 54°   Wind: 9mph
Humidity: 93%   Direction: 170°S
Pressure: 30.03"   Gusts: NA
Location:  36.8094°N, 96.3005°W
Report Text: KBVO 221418Z AUTO 17008KT 7SM OVC006 13/12 A3003 RMK AO2 T01330122
Loading
Personal Weather Stations






























Interactive Weather Map New forecast layout! Learn more

10-Day Weather Forecast

Advertisements
Track Severe Weather on mobile